createdAt,value
2022-10-12T00:01:15.815Z,19.68
2022-10-12T00:03:43.087Z,19.68
2022-10-12T00:06:13.209Z,19.66
2022-10-12T00:08:42.056Z,19.73
2022-10-12T00:11:13.805Z,19.89
2022-10-12T00:13:40.965Z,19.82
2022-10-12T00:16:09.713Z,19.65
2022-10-12T00:18:37.687Z,19.84
2022-10-12T00:21:13.744Z,19.65
2022-10-12T00:23:41.989Z,19.87
2022-10-12T00:26:15.049Z,19.82
2022-10-12T00:28:42.292Z,19.66
2022-10-12T00:31:11.436Z,19.69
2022-10-12T00:33:39.157Z,19.74
2022-10-12T00:36:17.016Z,19.46
2022-10-12T00:38:44.173Z,19.58
2022-10-12T00:41:12.063Z,19.67
2022-10-12T00:43:42.008Z,19.69
2022-10-12T00:46:20.305Z,19.61
2022-10-12T00:48:58.589Z,19.23
2022-10-12T00:51:26.141Z,19.49
2022-10-12T00:53:59.754Z,19.52
2022-10-12T00:56:30.714Z,19.56
2022-10-12T00:59:00.938Z,19.69
2022-10-12T01:01:29.909Z,19.57
2022-10-12T01:03:56.777Z,19.64
2022-10-12T01:06:23.440Z,19.59
2022-10-12T01:08:50.639Z,19.73
2022-10-12T01:11:17.361Z,19.85
2022-10-12T01:13:44.126Z,19.83
2022-10-12T01:16:16.850Z,19.86
2022-10-12T01:19:00.004Z,19.89
2022-10-12T01:21:27.068Z,19.88
2022-10-12T01:24:21.868Z,19.82
2022-10-12T01:27:20.575Z,19.85
2022-10-12T01:29:56.268Z,19.94
2022-10-12T01:32:33.776Z,19.88
2022-10-12T01:35:29.047Z,19.94
2022-10-12T01:38:15.772Z,19.70
2022-10-12T01:40:51.021Z,19.88
2022-10-12T01:43:20.503Z,19.82
2022-10-12T01:45:47.346Z,19.80
2022-10-12T01:48:14.339Z,19.75
2022-10-12T01:51:02.871Z,19.98
2022-10-12T01:53:45.090Z,19.96
2022-10-12T01:56:22.868Z,19.84
2022-10-12T01:59:08.708Z,19.89
2022-10-12T02:01:48.528Z,19.97
2022-10-12T02:04:47.831Z,19.74
2022-10-12T02:07:26.998Z,19.86
2022-10-12T02:09:58.832Z,19.65
2022-10-12T02:12:29.473Z,19.92
2022-10-12T02:15:00.902Z,19.88
2022-10-12T02:17:30.357Z,19.87
2022-10-12T02:20:00.294Z,19.92
2022-10-12T02:22:34.411Z,19.89
2022-10-12T02:25:06.801Z,19.93
2022-10-12T02:27:37.129Z,19.91
2022-10-12T02:30:04.790Z,19.79
2022-10-12T02:32:39.752Z,19.75
2022-10-12T02:35:39.093Z,19.81
2022-10-12T02:38:32.958Z,19.81
2022-10-12T02:41:08.311Z,19.93
2022-10-12T02:43:40.203Z,19.89
2022-10-12T02:46:10.212Z,19.94
2022-10-12T02:48:40.160Z,19.89
2022-10-12T02:51:10.622Z,19.82
2022-10-12T02:53:37.949Z,19.83
2022-10-12T02:56:10.097Z,19.95
2022-10-12T02:58:37.185Z,19.91
2022-10-12T03:01:04.792Z,19.84
2022-10-12T03:03:31.687Z,19.90
2022-10-12T03:05:58.465Z,19.76
2022-10-12T03:08:25.315Z,19.86
2022-10-12T03:10:52.023Z,19.82
2022-10-12T03:13:19.567Z,19.72
2022-10-12T03:15:46.292Z,19.88
2022-10-12T03:18:13.124Z,19.75
2022-10-12T03:20:39.821Z,19.91
2022-10-12T03:23:06.680Z,19.82
2022-10-12T03:25:33.592Z,19.83
2022-10-12T03:28:00.444Z,19.84
2022-10-12T03:30:27.256Z,19.71
2022-10-12T03:32:54.154Z,19.77
2022-10-12T03:35:21.024Z,19.77
2022-10-12T03:37:47.759Z,19.83
2022-10-12T03:40:14.674Z,19.84
2022-10-12T03:42:41.505Z,19.70
2022-10-12T03:45:09.313Z,19.86
2022-10-12T03:47:38.033Z,19.84
2022-10-12T03:50:05.674Z,19.69
2022-10-12T03:52:32.464Z,19.50
2022-10-12T03:54:59.153Z,19.67
2022-10-12T03:57:26.194Z,19.69
2022-10-12T03:59:52.929Z,19.72
2022-10-12T04:02:19.978Z,19.54
2022-10-12T04:04:46.691Z,19.34
2022-10-12T04:07:13.859Z,19.41
2022-10-12T04:09:40.710Z,19.25
2022-10-12T04:12:07.473Z,19.07
2022-10-12T04:14:34.467Z,19.33
2022-10-12T04:17:01.306Z,19.09
2022-10-12T04:19:28.608Z,19.28
2022-10-12T04:21:55.352Z,19.43
2022-10-12T04:24:22.493Z,19.36
2022-10-12T04:26:49.208Z,19.44
2022-10-12T04:29:16.276Z,19.56
2022-10-12T04:31:43.048Z,19.74
2022-10-12T04:34:10.530Z,19.49
2022-10-12T04:36:37.421Z,19.55
2022-10-12T04:39:04.420Z,19.59
2022-10-12T04:41:31.334Z,19.77
2022-10-12T04:43:58.522Z,19.65
2022-10-12T04:46:25.373Z,19.62
2022-10-12T04:48:52.325Z,19.80
2022-10-12T04:51:19.254Z,19.89
2022-10-12T04:53:46.124Z,19.75
2022-10-12T04:56:12.927Z,19.68
2022-10-12T04:58:39.648Z,20.00
2022-10-12T05:01:06.679Z,19.96
2022-10-12T05:03:36.118Z,19.77
2022-10-12T05:06:06.686Z,19.50
2022-10-12T05:08:33.467Z,19.00
2022-10-12T05:11:00.427Z,19.18
2022-10-12T05:13:27.324Z,19.10
2022-10-12T05:15:54.664Z,19.43
2022-10-12T05:18:21.770Z,19.43
2022-10-12T05:20:49.253Z,19.17
2022-10-12T05:23:18.010Z,19.25
2022-10-12T05:25:44.762Z,19.18
2022-10-12T05:28:11.578Z,19.33
2022-10-12T05:30:39.291Z,19.48
2022-10-12T05:33:06.058Z,19.30
2022-10-12T05:35:32.806Z,19.15
2022-10-12T05:37:59.606Z,19.44
2022-10-12T05:40:26.360Z,19.69
2022-10-12T05:42:53.212Z,19.67
2022-10-12T05:45:19.884Z,19.52
2022-10-12T05:47:46.604Z,19.04
2022-10-12T05:50:13.518Z,19.30
2022-10-12T05:52:40.703Z,19.26
2022-10-12T05:55:08.449Z,19.11
2022-10-12T05:57:36.630Z,19.38
2022-10-12T06:00:05.975Z,19.54
2022-10-12T06:02:37.998Z,19.60
2022-10-12T06:05:05.629Z,19.35
2022-10-12T06:07:32.479Z,19.43
2022-10-12T06:10:00.242Z,19.57
2022-10-12T06:12:28.065Z,19.69
2022-10-12T06:14:55.224Z,19.83
2022-10-12T06:17:22.041Z,19.87
2022-10-12T06:19:48.859Z,19.71
2022-10-12T06:22:15.594Z,19.87
2022-10-12T06:24:42.539Z,19.88
2022-10-12T06:27:09.979Z,19.97
2022-10-12T06:29:38.226Z,20.09
2022-10-12T06:32:05.210Z,20.05
2022-10-12T06:34:32.124Z,20.04
2022-10-12T06:37:01.796Z,20.12
2022-10-12T06:39:29.047Z,20.20
2022-10-12T06:41:55.993Z,20.11
2022-10-12T06:44:22.892Z,20.15
2022-10-12T06:46:50.515Z,20.21
2022-10-12T06:49:17.988Z,20.42
2022-10-12T06:51:44.879Z,20.15
2022-10-12T06:54:11.728Z,20.25
2022-10-12T06:56:39.689Z,20.16
2022-10-12T06:59:06.661Z,20.27
2022-10-12T07:01:33.636Z,20.50
2022-10-12T07:04:01.053Z,20.34
2022-10-12T07:06:28.041Z,20.47
2022-10-12T07:08:55.611Z,20.39
2022-10-12T07:11:22.952Z,20.38
2022-10-12T07:13:49.804Z,20.35
2022-10-12T07:16:16.758Z,20.52
2022-10-12T07:18:43.483Z,20.53
2022-10-12T07:21:10.820Z,20.41
2022-10-12T07:23:41.363Z,20.50
2022-10-12T07:26:12.426Z,20.55
2022-10-12T07:28:39.275Z,20.55
2022-10-12T07:31:08.237Z,20.51
2022-10-12T07:33:36.316Z,20.34
2022-10-12T07:36:13.730Z,20.28
2022-10-12T07:38:45.223Z,20.38
2022-10-12T07:41:12.578Z,20.57
2022-10-12T07:43:39.450Z,20.39
2022-10-12T07:46:06.732Z,20.52
2022-10-12T07:48:34.374Z,20.62
2022-10-12T07:51:09.825Z,20.55
2022-10-12T07:53:38.362Z,20.65
2022-10-12T07:56:07.759Z,20.64
2022-10-12T07:58:35.622Z,20.52
2022-10-12T08:01:08.623Z,20.49
2022-10-12T08:03:35.812Z,20.49
2022-10-12T08:06:14.194Z,20.72
2022-10-12T08:08:41.898Z,20.70
2022-10-12T08:11:10.856Z,20.79
2022-10-12T08:13:38.440Z,20.56
2022-10-12T08:16:08.500Z,20.63
2022-10-12T08:18:35.389Z,20.75
2022-10-12T08:21:05.211Z,20.84
2022-10-12T08:23:31.984Z,20.69
2022-10-12T08:25:58.938Z,20.73
2022-10-12T08:28:25.925Z,20.73
2022-10-12T08:30:52.758Z,20.83
2022-10-12T08:33:20.108Z,20.86
2022-10-12T08:35:48.085Z,21.08
2022-10-12T08:38:16.530Z,21.03
2022-10-12T08:40:49.596Z,21.15
2022-10-12T08:43:42.703Z,20.93
2022-10-12T08:46:09.932Z,20.93
2022-10-12T08:48:50.518Z,20.99
2022-10-12T08:51:24.773Z,21.01
2022-10-12T08:53:57.854Z,20.73
2022-10-12T08:56:24.800Z,20.64
2022-10-12T08:58:53.375Z,20.65
2022-10-12T09:01:37.338Z,20.01
2022-10-12T09:04:23.037Z,20.67
2022-10-12T09:06:58.583Z,20.79
2022-10-12T09:09:59.003Z,20.75
2022-10-12T09:12:34.963Z,20.97
2022-10-12T09:15:09.079Z,20.61
2022-10-12T09:17:45.164Z,20.62
2022-10-12T09:20:28.223Z,21.03
2022-10-12T09:23:01.445Z,21.06
2022-10-12T09:25:29.349Z,21.39
2022-10-12T09:28:26.027Z,21.37
2022-10-12T09:31:05.515Z,21.30
2022-10-12T09:33:50.845Z,21.20
2022-10-12T09:36:21.713Z,20.97
2022-10-12T09:38:50.634Z,20.91
2022-10-12T09:41:26.304Z,21.21
2022-10-12T09:43:59.251Z,21.00
2022-10-12T09:47:02.597Z,21.26
2022-10-12T09:49:50.796Z,21.04
2022-10-12T09:52:24.535Z,21.33
2022-10-12T09:54:58.540Z,21.21
2022-10-12T09:57:30.632Z,21.23
2022-10-12T09:59:57.779Z,21.05
2022-10-12T10:02:26.730Z,21.60
2022-10-12T10:04:55.296Z,21.46
2022-10-12T10:07:34.732Z,21.39
2022-10-12T10:10:17.520Z,21.87
2022-10-12T10:12:50.389Z,21.66
2022-10-12T10:15:30.370Z,22.01
2022-10-12T10:18:02.841Z,21.60
2022-10-12T10:20:39.083Z,21.07
2022-10-12T10:23:06.212Z,21.29
2022-10-12T10:25:34.389Z,21.96
2022-10-12T10:28:25.676Z,22.14
2022-10-12T10:31:02.633Z,21.87
2022-10-12T10:33:36.466Z,21.87
2022-10-12T10:36:24.161Z,22.31
2022-10-12T10:38:56.878Z,21.47
2022-10-12T10:41:41.984Z,22.01
2022-10-12T10:44:25.757Z,21.79
2022-10-12T10:46:55.455Z,22.08
2022-10-12T10:49:47.053Z,21.73
2022-10-12T10:52:36.909Z,21.88
2022-10-12T10:55:17.322Z,22.20
2022-10-12T10:57:57.519Z,21.86
2022-10-12T11:00:40.993Z,21.66
2022-10-12T11:03:22.547Z,22.44
2022-10-12T11:05:58.193Z,22.64
2022-10-12T11:08:29.952Z,22.48
2022-10-12T11:11:02.936Z,22.77
2022-10-12T11:13:38.704Z,22.73
2022-10-12T11:16:20.709Z,22.83
2022-10-12T11:18:55.442Z,23.04
2022-10-12T11:21:38.488Z,22.98
2022-10-12T11:24:33.685Z,23.03
2022-10-12T11:27:09.398Z,23.36
2022-10-12T11:29:38.476Z,22.52
2022-10-12T11:32:35.152Z,22.81
2022-10-12T11:35:04.552Z,22.36
2022-10-12T11:38:16.690Z,22.94
2022-10-12T11:41:14.014Z,22.84
2022-10-12T11:43:50.327Z,22.33
2022-10-12T11:46:23.380Z,22.81
2022-10-12T11:49:02.721Z,22.55
2022-10-12T11:51:29.660Z,22.83
2022-10-12T11:54:16.465Z,22.40
2022-10-12T11:56:51.398Z,22.95
2022-10-12T11:59:42.092Z,22.77
2022-10-12T12:02:38.103Z,23.01
2022-10-12T12:05:07.063Z,23.09
2022-10-12T12:07:46.254Z,22.87
2022-10-12T12:10:35.023Z,23.25
2022-10-12T12:13:23.011Z,23.61
2022-10-12T12:15:53.353Z,22.89
2022-10-12T12:18:28.645Z,22.26
2022-10-12T12:21:01.423Z,23.16
2022-10-12T12:23:37.827Z,22.88
2022-10-12T12:26:15.764Z,23.37
2022-10-12T12:28:46.634Z,23.08
2022-10-12T12:31:24.813Z,23.54
2022-10-12T12:34:03.355Z,23.24
2022-10-12T12:36:33.392Z,23.32
2022-10-12T12:39:01.945Z,23.21
2022-10-12T12:41:52.008Z,22.96
2022-10-12T12:44:41.539Z,23.10
2022-10-12T12:47:43.454Z,23.26
2022-10-12T12:50:02.131Z,23.31
2022-10-12T12:52:33.500Z,22.97
2022-10-12T12:55:32.941Z,23.44
2022-10-12T12:58:36.106Z,23.75
2022-10-12T13:01:20.513Z,23.96
2022-10-12T13:04:21.155Z,23.97
2022-10-12T13:07:02.891Z,23.77
2022-10-12T13:10:11.148Z,23.99
2022-10-12T13:12:56.651Z,23.88
2022-10-12T13:15:46.439Z,24.19
2022-10-12T13:18:48.031Z,24.47
2022-10-12T13:21:23.038Z,24.78
2022-10-12T13:23:56.882Z,24.42
2022-10-12T13:26:29.380Z,24.96
2022-10-12T13:28:58.017Z,24.93
2022-10-12T13:31:41.601Z,24.82
2022-10-12T13:34:36.000Z,25.56
2022-10-12T13:37:09.901Z,26.06
2022-10-12T13:39:43.482Z,25.97
2022-10-12T13:42:16.779Z,24.55
2022-10-12T13:44:44.960Z,24.94
2022-10-12T13:47:26.578Z,24.81
2022-10-12T13:49:54.407Z,24.59
2022-10-12T13:52:29.542Z,24.65
2022-10-12T13:54:59.150Z,24.93
2022-10-12T13:57:32.684Z,24.79
2022-10-12T14:00:18.539Z,24.24
2022-10-12T14:02:59.821Z,24.59
2022-10-12T14:05:29.008Z,24.58
2022-10-12T14:08:01.483Z,24.64
2022-10-12T14:10:37.207Z,24.07
2022-10-12T14:13:05.131Z,24.21
2022-10-12T14:15:38.548Z,23.60
2022-10-12T14:18:31.084Z,23.75
2022-10-12T14:21:16.571Z,24.18
2022-10-12T14:24:10.392Z,23.92
2022-10-12T14:26:40.217Z,23.47
2022-10-12T14:29:31.288Z,23.62
2022-10-12T14:32:00.638Z,23.71
2022-10-12T14:34:27.353Z,23.76
2022-10-12T14:37:09.418Z,23.30
2022-10-12T14:39:36.813Z,23.48
2022-10-12T14:42:17.907Z,23.34
2022-10-12T14:44:44.787Z,23.17
2022-10-12T14:47:28.332Z,23.33
2022-10-12T14:49:57.793Z,23.38
2022-10-12T14:52:31.493Z,23.45
2022-10-12T14:54:59.757Z,23.30
2022-10-12T14:57:29.303Z,23.19
2022-10-12T14:59:56.930Z,23.08
2022-10-12T15:02:31.664Z,23.06
2022-10-12T15:04:59.803Z,23.20
2022-10-12T15:07:31.833Z,23.24
2022-10-12T15:09:59.346Z,23.25
2022-10-12T15:12:30.080Z,22.93
2022-10-12T15:14:59.705Z,23.01
2022-10-12T15:17:26.762Z,23.07
2022-10-12T15:19:54.377Z,23.00
2022-10-12T15:22:23.797Z,23.08
2022-10-12T15:24:52.809Z,23.04
2022-10-12T15:27:21.293Z,22.94
2022-10-12T15:29:48.664Z,22.77
2022-10-12T15:32:17.575Z,22.77
2022-10-12T15:34:45.177Z,22.43
2022-10-12T15:37:12.205Z,22.58
2022-10-12T15:39:39.170Z,22.64
2022-10-12T15:42:06.250Z,22.65
2022-10-12T15:44:39.787Z,22.57
2022-10-12T15:47:06.768Z,22.65
2022-10-12T15:49:33.495Z,22.51
2022-10-12T15:52:00.409Z,22.51
2022-10-12T15:54:27.546Z,22.49
2022-10-12T15:56:54.231Z,22.45
2022-10-12T15:59:20.916Z,22.29
2022-10-12T16:01:47.923Z,22.34
2022-10-12T16:04:15.654Z,22.33
2022-10-12T16:06:42.674Z,22.28
2022-10-12T16:09:10.162Z,22.23
2022-10-12T16:11:37.172Z,22.25
2022-10-12T16:14:03.980Z,22.22
2022-10-12T16:16:32.176Z,22.21
2022-10-12T16:18:58.973Z,22.24
2022-10-12T16:21:25.892Z,22.26
2022-10-12T16:23:52.867Z,21.94
2022-10-12T16:26:19.653Z,21.85
2022-10-12T16:28:46.539Z,21.86
2022-10-12T16:31:17.658Z,21.78
2022-10-12T16:33:45.096Z,21.43
2022-10-12T16:36:15.169Z,21.34
2022-10-12T16:38:43.038Z,21.64
2022-10-12T16:41:15.234Z,21.58
2022-10-12T16:43:42.771Z,21.62
2022-10-12T16:46:09.618Z,21.86
2022-10-12T16:48:37.588Z,21.85
2022-10-12T16:51:09.450Z,21.51
2022-10-12T16:53:36.638Z,21.61
2022-10-12T16:56:04.475Z,21.59
2022-10-12T16:58:31.361Z,21.51
2022-10-12T17:00:58.295Z,21.50
2022-10-12T17:03:25.117Z,21.61
2022-10-12T17:06:01.340Z,21.59
2022-10-12T17:08:31.395Z,21.50
2022-10-12T17:10:58.154Z,21.38
2022-10-12T17:13:26.139Z,21.48
2022-10-12T17:15:52.799Z,21.36
2022-10-12T17:18:19.720Z,21.40
2022-10-12T17:20:49.390Z,21.39
2022-10-12T17:23:19.058Z,21.38
2022-10-12T17:25:46.887Z,21.26
2022-10-12T17:28:13.803Z,21.10
2022-10-12T17:30:40.588Z,21.06
2022-10-12T17:33:07.472Z,21.08
2022-10-12T17:35:34.189Z,21.24
2022-10-12T17:38:00.967Z,21.34
2022-10-12T17:40:27.673Z,21.53
2022-10-12T17:42:54.682Z,21.29
2022-10-12T17:45:21.567Z,21.38
2022-10-12T17:47:49.627Z,21.18
2022-10-12T17:50:16.652Z,21.11
2022-10-12T17:52:43.325Z,21.06
2022-10-12T17:55:29.574Z,21.02
2022-10-12T17:57:56.935Z,21.07
2022-10-12T18:00:23.812Z,20.89
2022-10-12T18:02:50.654Z,21.15
2022-10-12T18:05:17.534Z,20.98
2022-10-12T18:07:44.633Z,20.93
2022-10-12T18:10:11.655Z,20.76
2022-10-12T18:12:38.637Z,20.67
2022-10-12T18:15:07.555Z,20.64
2022-10-12T18:17:35.223Z,20.68
2022-10-12T18:20:02.221Z,20.62
2022-10-12T18:22:32.432Z,20.30
2022-10-12T18:24:59.795Z,20.48
2022-10-12T18:27:38.468Z,20.42
2022-10-12T18:30:05.980Z,20.52
2022-10-12T18:32:32.793Z,20.28
2022-10-12T18:34:59.605Z,20.38
2022-10-12T18:37:26.360Z,20.29
2022-10-12T18:39:54.429Z,20.21
2022-10-12T18:42:21.380Z,20.30
2022-10-12T18:44:48.184Z,20.18
2022-10-12T18:47:15.058Z,20.12
2022-10-12T18:49:41.759Z,19.97
2022-10-12T18:52:08.789Z,20.02
2022-10-12T18:54:35.807Z,19.80
2022-10-12T18:57:02.675Z,19.92
2022-10-12T18:59:29.670Z,19.80
2022-10-12T19:01:56.567Z,19.91
2022-10-12T19:04:23.784Z,19.85
2022-10-12T19:06:55.585Z,19.94
2022-10-12T19:09:24.639Z,20.04
2022-10-12T19:11:51.429Z,19.80
2022-10-12T19:14:18.258Z,19.81
2022-10-12T19:16:46.029Z,19.80
2022-10-12T19:19:20.440Z,19.74
2022-10-12T19:21:49.570Z,19.60
2022-10-12T19:24:16.328Z,19.71
2022-10-12T19:26:45.294Z,19.60
2022-10-12T19:29:12.118Z,19.65
2022-10-12T19:31:42.833Z,19.62
2022-10-12T19:34:13.400Z,19.33
2022-10-12T19:36:40.697Z,19.36
2022-10-12T19:39:09.878Z,19.23
2022-10-12T19:41:37.039Z,19.19
2022-10-12T19:44:04.990Z,19.26
2022-10-12T19:46:32.487Z,19.16
2022-10-12T19:49:00.049Z,19.10
2022-10-12T19:51:28.823Z,18.96
2022-10-12T19:53:57.665Z,19.10
2022-10-12T19:56:26.135Z,19.17
2022-10-12T19:58:55.547Z,19.17
2022-10-12T20:01:34.854Z,19.09
2022-10-12T20:04:04.320Z,18.98
2022-10-12T20:06:31.368Z,18.68
2022-10-12T20:09:04.084Z,18.44
2022-10-12T20:11:31.270Z,18.50
2022-10-12T20:13:58.445Z,18.63
2022-10-12T20:16:26.909Z,18.73
2022-10-12T20:18:55.776Z,18.89
2022-10-12T20:21:23.698Z,18.86
2022-10-12T20:23:51.495Z,18.84
2022-10-12T20:26:22.788Z,18.89
2022-10-12T20:28:50.667Z,18.96
2022-10-12T20:31:19.369Z,18.90
2022-10-12T20:33:50.743Z,18.88
2022-10-12T20:36:22.218Z,18.86
2022-10-12T20:38:49.592Z,18.74
2022-10-12T20:41:21.243Z,18.80
2022-10-12T20:43:48.242Z,18.74
2022-10-12T20:46:16.710Z,18.88
2022-10-12T20:48:44.963Z,18.60
2022-10-12T20:51:20.912Z,18.59
2022-10-12T20:53:48.135Z,18.52
2022-10-12T20:56:14.833Z,18.52
2022-10-12T20:58:41.663Z,18.45
2022-10-12T21:01:15.411Z,18.41
2022-10-12T21:03:43.219Z,18.27
2022-10-12T21:06:12.710Z,18.33
2022-10-12T21:08:41.105Z,18.25
2022-10-12T21:11:09.771Z,18.27
2022-10-12T21:13:41.578Z,18.57
2022-10-12T21:16:09.619Z,18.55
2022-10-12T21:18:38.426Z,18.51
2022-10-12T21:21:11.692Z,18.36
2022-10-12T21:23:40.714Z,17.96
2022-10-12T21:26:13.051Z,18.16
2022-10-12T21:28:41.329Z,17.94
2022-10-12T21:31:08.741Z,18.07
2022-10-12T21:33:36.677Z,18.09
2022-10-12T21:36:27.091Z,18.01
2022-10-12T21:38:54.331Z,18.01
2022-10-12T21:41:23.597Z,17.87
2022-10-12T21:43:51.225Z,17.73
2022-10-12T21:46:21.415Z,17.81
2022-10-12T21:48:49.976Z,17.72
2022-10-12T21:51:18.572Z,17.80
2022-10-12T21:53:45.577Z,17.74
2022-10-12T21:56:34.017Z,17.83
2022-10-12T21:59:02.311Z,17.67
2022-10-12T22:01:38.085Z,17.76
2022-10-12T22:04:07.422Z,17.64
2022-10-12T22:06:35.133Z,17.61
2022-10-12T22:09:22.286Z,17.66
2022-10-12T22:11:50.234Z,17.41
2022-10-12T22:14:18.818Z,17.58
2022-10-12T22:16:46.092Z,17.49
2022-10-12T22:19:15.266Z,17.52
2022-10-12T22:21:42.218Z,17.58
2022-10-12T22:24:09.106Z,17.59
2022-10-12T22:26:36.342Z,17.57
2022-10-12T22:29:05.212Z,17.69
2022-10-12T22:31:33.422Z,17.66
2022-10-12T22:34:00.571Z,17.55
2022-10-12T22:36:31.018Z,17.65
2022-10-12T22:38:58.855Z,17.46
2022-10-12T22:41:25.624Z,17.21
2022-10-12T22:43:55.207Z,17.32
2022-10-12T22:46:24.195Z,17.26
2022-10-12T22:48:52.712Z,17.30
2022-10-12T22:51:30.484Z,17.13
2022-10-12T22:53:57.595Z,17.15
2022-10-12T22:56:24.408Z,17.34
2022-10-12T22:58:56.225Z,17.23
2022-10-12T23:01:23.585Z,17.24
2022-10-12T23:03:50.779Z,17.36
2022-10-12T23:06:18.833Z,17.23
2022-10-12T23:08:46.520Z,17.01
2022-10-12T23:11:16.215Z,17.03
2022-10-12T23:13:43.152Z,17.08
2022-10-12T23:16:19.472Z,17.03
2022-10-12T23:18:46.312Z,16.89
2022-10-12T23:21:16.346Z,16.78
2022-10-12T23:23:44.345Z,16.77
2022-10-12T23:26:14.130Z,16.68
2022-10-12T23:28:41.258Z,16.14
2022-10-12T23:31:18.625Z,16.38
2022-10-12T23:33:46.076Z,16.35
2022-10-12T23:36:15.753Z,16.46
2022-10-12T23:38:43.935Z,16.48
2022-10-12T23:41:12.165Z,16.46
2022-10-12T23:43:39.392Z,16.48
2022-10-12T23:46:06.496Z,16.68
2022-10-12T23:48:33.708Z,16.79
2022-10-12T23:51:00.904Z,16.82
2022-10-12T23:53:27.760Z,16.74
2022-10-12T23:55:54.784Z,16.41
2022-10-12T23:58:22.143Z,16.50
